Terminal Aerodrome Forecast
Issued by NWS Pocatello, ID

Home | Current Version | Previous Version | Text Only | Print | Product List | Glossary On
Versions: 1 2 3 4 5 6 7 8 9 10 11 12 13
990
FTUS45 KPIH 291720
TAFPIH
TAF
KPIH 291720Z 2918/3018 26008KT P6SM FEW040 SCT070
     FM292200 24008KT P6SM VCTS FEW060CB SCT200
     FM300200 18006KT P6SM FEW080 SCT100 SCT200
     FM301500 24015KT P6SM SKC=

USA.gov is the U.S. government's official web portal to all federal, state and local government web resources and services.